Terminal Aerodrome Forecast
Issued by NWS

Home | Current Version | Previous Version | Text Only | Print | Product List | Glossary On
Versions: 1 2 3 4 5 6 7 8 9 10 11 12 13 14 15 16 17 18 19 20 21 22 23 24
000
FTUS46 KOTX 191140
TAFCOE
TAF
KCOE 191140Z 1912/2012 20011KT P6SM SCT100 BKN200 WS020/30030KT
     FM191600 22016G22KT P6SM SCT060 BKN100
     FM192100 24018G28KT P6SM VCSH BKN080
     FM200400 22010KT P6SM VCSH SCT080 BKN100=

USA.gov is the U.S. government's official web portal to all federal, state and local government web resources and services.